sensor_id;sensor_type;location;lat;lon;timestamp;pressure;altitude;pressure_sealevel;temperature;humidity
39265;BME280;42646;51.910;7.724;2024-03-17T00:01:36;101814.16;;;4.79;100.00
39265;BME280;42646;51.910;7.724;2024-03-17T00:04:02;101804.75;;;4.73;100.00
39265;BME280;42646;51.910;7.724;2024-03-17T00:06:30;101799.63;;;4.70;100.00
39265;BME280;42646;51.910;7.724;2024-03-17T00:08:56;101797.22;;;4.66;100.00
39265;BME280;42646;51.910;7.724;2024-03-17T00:11:23;101801.75;;;4.62;100.00
39265;BME280;42646;51.910;7.724;2024-03-17T00:13:49;101790.59;;;4.57;100.00
39265;BME280;42646;51.910;7.724;2024-03-17T00:16:15;101801.28;;;4.54;100.00
39265;BME280;42646;51.910;7.724;2024-03-17T00:18:44;101792.72;;;4.49;100.00
39265;BME280;42646;51.910;7.724;2024-03-17T00:21:11;101793.81;;;4.45;100.00
39265;BME280;42646;51.910;7.724;2024-03-17T00:23:39;101795.66;;;4.43;100.00
39265;BME280;42646;51.910;7.724;2024-03-17T00:26:06;101795.81;;;4.40;100.00
39265;BME280;42646;51.910;7.724;2024-03-17T00:28:31;101796.00;;;4.35;100.00
39265;BME280;42646;51.910;7.724;2024-03-17T00:30:58;101796.28;;;4.29;100.00
39265;BME280;42646;51.910;7.724;2024-03-17T00:33:24;101798.19;;;4.25;100.00
39265;BME280;42646;51.910;7.724;2024-03-17T00:35:51;101792.22;;;4.22;100.00
39265;BME280;42646;51.910;7.724;2024-03-17T00:38:17;101792.44;;;4.17;100.00
39265;BME280;42646;51.910;7.724;2024-03-17T00:40:45;101791.78;;;4.12;100.00
39265;BME280;42646;51.910;7.724;2024-03-17T00:43:11;101792.72;;;4.11;99.73
39265;BME280;42646;51.910;7.724;2024-03-17T00:45:38;101787.63;;;4.07;99.84
39265;BME280;42646;51.910;7.724;2024-03-17T00:48:04;101784.28;;;4.03;100.00
39265;BME280;42646;51.910;7.724;2024-03-17T00:50:31;101781.88;;;3.98;100.00
39265;BME280;42646;51.910;7.724;2024-03-17T00:52:57;101782.84;;;3.96;100.00
39265;BME280;42646;51.910;7.724;2024-03-17T00:55:25;101775.09;;;3.93;100.00
39265;BME280;42646;51.910;7.724;2024-03-17T00:57:52;101773.44;;;3.90;100.00
39265;BME280;42646;51.910;7.724;2024-03-17T01:00:20;101770.88;;;3.89;100.00
39265;BME280;42646;51.910;7.724;2024-03-17T01:02:45;101766.63;;;3.86;100.00
39265;BME280;42646;51.910;7.724;2024-03-17T01:05:12;101765.81;;;3.84;100.00
39265;BME280;42646;51.910;7.724;2024-03-17T01:07:38;101767.69;;;3.82;100.00
39265;BME280;42646;51.910;7.724;2024-03-17T01:10:05;101771.31;;;3.80;100.00
39265;BME280;42646;51.910;7.724;2024-03-17T01:12:33;101763.59;;;3.75;100.00
39265;BME280;42646;51.910;7.724;2024-03-17T01:15:04;101756.75;;;3.71;100.00
39265;BME280;42646;51.910;7.724;2024-03-17T01:17:31;101746.38;;;3.68;100.00
39265;BME280;42646;51.910;7.724;2024-03-17T01:19:57;101751.00;;;3.63;100.00
39265;BME280;42646;51.910;7.724;2024-03-17T01:22:24;101750.19;;;3.61;100.00
39265;BME280;42646;51.910;7.724;2024-03-17T01:24:50;101742.44;;;3.58;100.00
39265;BME280;42646;51.910;7.724;2024-03-17T01:27:16;101739.06;;;3.54;100.00
39265;BME280;42646;51.910;7.724;2024-03-17T01:29:42;101733.88;;;3.53;100.00
39265;BME280;42646;51.910;7.724;2024-03-17T01:32:11;101736.63;;;3.49;100.00
39265;BME280;42646;51.910;7.724;2024-03-17T01:34:37;101735.94;;;3.46;100.00
39265;BME280;42646;51.910;7.724;2024-03-17T01:37:03;101729.91;;;3.44;100.00
39265;BME280;42646;51.910;7.724;2024-03-17T01:39:30;101730.88;;;3.41;100.00
39265;BME280;42646;51.910;7.724;2024-03-17T01:41:57;101726.59;;;3.39;100.00
39265;BME280;42646;51.910;7.724;2024-03-17T01:44:27;101727.56;;;3.36;100.00
39265;BME280;42646;51.910;7.724;2024-03-17T01:46:53;101732.91;;;3.35;100.00
39265;BME280;42646;51.910;7.724;2024-03-17T01:49:22;101731.28;;;3.32;100.00
39265;BME280;42646;51.910;7.724;2024-03-17T01:51:50;101719.16;;;3.28;100.00
39265;BME280;42646;51.910;7.724;2024-03-17T01:54:17;101722.75;;;3.26;100.00
39265;BME280;42646;51.910;7.724;2024-03-17T01:56:43;101715.94;;;3.21;100.00
39265;BME280;42646;51.910;7.724;2024-03-17T01:59:10;101719.53;;;3.19;100.00
39265;BME280;42646;51.910;7.724;2024-03-17T02:01:36;101727.66;;;3.14;100.00
39265;BME280;42646;51.910;7.724;2024-03-17T02:04:05;101723.44;;;3.10;100.00
39265;BME280;42646;51.910;7.724;2024-03-17T02:06:32;101716.56;;;3.06;100.00
39265;BME280;42646;51.910;7.724;2024-03-17T02:08:59;101725.50;;;3.02;100.00
39265;BME280;42646;51.910;7.724;2024-03-17T02:11:27;101726.63;;;2.97;100.00
39265;BME280;42646;51.910;7.724;2024-03-17T02:13:54;101732.94;;;2.92;100.00
39265;BME280;42646;51.910;7.724;2024-03-17T02:16:21;101733.03;;;2.89;100.00
39265;BME280;42646;51.910;7.724;2024-03-17T02:18:47;101730.56;;;2.86;100.00
39265;BME280;42646;51.910;7.724;2024-03-17T02:21:14;101740.31;;;2.83;100.00
39265;BME280;42646;51.910;7.724;2024-03-17T02:23:42;101734.34;;;2.79;100.00
39265;BME280;42646;51.910;7.724;2024-03-17T02:26:08;101722.19;;;2.77;100.00
39265;BME280;42646;51.910;7.724;2024-03-17T02:28:39;101718.84;;;2.73;100.00
39265;BME280;42646;51.910;7.724;2024-03-17T02:31:07;101718.09;;;2.70;100.00
39265;BME280;42646;51.910;7.724;2024-03-17T02:33:34;101714.69;;;2.67;100.00
39265;BME280;42646;51.910;7.724;2024-03-17T02:36:00;101718.16;;;2.68;100.00
39265;BME280;42646;51.910;7.724;2024-03-17T02:38:29;101719.97;;;2.66;100.00
39265;BME280;42646;51.910;7.724;2024-03-17T02:41:15;101721.81;;;2.64;100.00
39265;BME280;42646;51.910;7.724;2024-03-17T02:43:42;101727.22;;;2.61;100.00
39265;BME280;42646;51.910;7.724;2024-03-17T02:46:11;101726.41;;;2.59;100.00
39265;BME280;42646;51.910;7.724;2024-03-17T02:48:39;101716.81;;;2.58;100.00
39265;BME280;42646;51.910;7.724;2024-03-17T02:51:10;101726.53;;;2.56;100.00
39265;BME280;42646;51.910;7.724;2024-03-17T02:53:38;101717.00;;;2.53;100.00
39265;BME280;42646;51.910;7.724;2024-03-17T02:56:05;101717.13;;;2.50;100.00
39265;BME280;42646;51.910;7.724;2024-03-17T02:58:34;101719.00;;;2.47;100.00
39265;BME280;42646;51.910;7.724;2024-03-17T03:01:01;101714.75;;;2.44;100.00
39265;BME280;42646;51.910;7.724;2024-03-17T03:03:28;101713.06;;;2.41;100.00
39265;BME280;42646;51.910;7.724;2024-03-17T03:05:54;101707.09;;;2.38;100.00
39265;BME280;42646;51.910;7.724;2024-03-17T03:08:22;101715.94;;;2.35;100.00
39265;BME280;42646;51.910;7.724;2024-03-17T03:10:49;101711.59;;;2.34;100.00
39265;BME280;42646;51.910;7.724;2024-03-17T03:13:16;101711.78;;;2.30;100.00
39265;BME280;42646;51.910;7.724;2024-03-17T03:15:46;101709.28;;;2.27;100.00
39265;BME280;42646;51.910;7.724;2024-03-17T03:18:13;101707.63;;;2.24;100.00
39265;BME280;42646;51.910;7.724;2024-03-17T03:20:40;101711.22;;;2.22;100.00
39265;BME280;42646;51.910;7.724;2024-03-17T03:23:07;101714.81;;;2.19;100.00
39265;BME280;42646;51.910;7.724;2024-03-17T03:25:34;101722.75;;;2.18;100.00
39265;BME280;42646;51.910;7.724;2024-03-17T03:28:01;101718.44;;;2.17;100.00
39265;BME280;42646;51.910;7.724;2024-03-17T03:30:28;101712.41;;;2.13;100.00
39265;BME280;42646;51.910;7.724;2024-03-17T03:32:56;101712.41;;;2.13;100.00
39265;BME280;42646;51.910;7.724;2024-03-17T03:35:23;101710.72;;;2.12;100.00
39265;BME280;42646;51.910;7.724;2024-03-17T03:37:52;101709.88;;;2.11;100.00
39265;BME280;42646;51.910;7.724;2024-03-17T03:40:19;101713.41;;;2.10;100.00
39265;BME280;42646;51.910;7.724;2024-03-17T03:42:46;101708.16;;;2.10;100.00
39265;BME280;42646;51.910;7.724;2024-03-17T03:45:13;101707.41;;;2.07;100.00
39265;BME280;42646;51.910;7.724;2024-03-17T03:47:41;101710.00;;;2.08;100.00
39265;BME280;42646;51.910;7.724;2024-03-17T03:50:10;101705.63;;;2.07;100.00
39265;BME280;42646;51.910;7.724;2024-03-17T03:52:37;101700.38;;;2.07;100.00
39265;BME280;42646;51.910;7.724;2024-03-17T03:55:07;101706.53;;;2.08;100.00
39265;BME280;42646;51.910;7.724;2024-03-17T03:57:35;101708.22;;;2.09;100.00
39265;BME280;42646;51.910;7.724;2024-03-17T04:00:02;101707.38;;;2.08;100.00
39265;BME280;42646;51.910;7.724;2024-03-17T04:02:31;101709.16;;;2.08;100.00
39265;BME280;42646;51.910;7.724;2024-03-17T04:04:59;101704.78;;;2.07;100.00
39265;BME280;42646;51.910;7.724;2024-03-17T04:07:27;101700.44;;;2.06;100.00
39265;BME280;42646;51.910;7.724;2024-03-17T04:09:54;101705.63;;;2.07;100.00
39265;BME280;42646;51.910;7.724;2024-03-17T04:12:21;101702.16;;;2.07;100.00
39265;BME280;42646;51.910;7.724;2024-03-17T04:14:48;101708.31;;;2.06;100.00
39265;BME280;42646;51.910;7.724;2024-03-17T04:17:18;101708.31;;;2.06;100.00
39265;BME280;42646;51.910;7.724;2024-03-17T04:19:47;101707.41;;;2.07;100.00
39265;BME280;42646;51.910;7.724;2024-03-17T04:22:14;101703.94;;;2.06;100.00
39265;BME280;42646;51.910;7.724;2024-03-17T04:24:43;101710.84;;;2.09;100.00
39265;BME280;42646;51.910;7.724;2024-03-17T04:27:10;101703.94;;;2.06;100.00
39265;BME280;42646;51.910;7.724;2024-03-17T04:29:37;101702.16;;;2.07;100.00
39265;BME280;42646;51.910;7.724;2024-03-17T04:32:04;101699.53;;;2.07;100.00
39265;BME280;42646;51.910;7.724;2024-03-17T04:34:31;101698.56;;;2.09;100.00
39265;BME280;42646;51.910;7.724;2024-03-17T04:36:58;101700.28;;;2.10;100.00
39265;BME280;42646;51.910;7.724;2024-03-17T04:39:25;101710.78;;;2.10;100.00
39265;BME280;42646;51.910;7.724;2024-03-17T04:41:53;101700.28;;;2.10;100.00
39265;BME280;42646;51.910;7.724;2024-03-17T04:44:20;101698.50;;;2.11;100.00
39265;BME280;42646;51.910;7.724;2024-03-17T04:46:47;101698.44;;;2.12;100.00
39265;BME280;42646;51.910;7.724;2024-03-17T04:49:14;101698.41;;;2.14;100.00
39265;BME280;42646;51.910;7.724;2024-03-17T04:51:40;101700.13;;;2.15;100.00
39265;BME280;42646;51.910;7.724;2024-03-17T04:54:07;101702.59;;;2.18;100.00
39265;BME280;42646;51.910;7.724;2024-03-17T04:56:34;101700.84;;;2.19;100.00
39265;BME280;42646;51.910;7.724;2024-03-17T04:59:02;101702.59;;;2.18;100.00
39265;BME280;42646;51.910;7.724;2024-03-17T05:01:30;101703.47;;;2.19;100.00
39265;BME280;42646;51.910;7.724;2024-03-17T05:04:01;101701.69;;;2.19;100.00
39265;BME280;42646;51.910;7.724;2024-03-17T05:06:29;101696.44;;;2.19;100.00
39265;BME280;42646;51.910;7.724;2024-03-17T05:08:56;101698.19;;;2.20;100.00
39265;BME280;42646;51.910;7.724;2024-03-17T05:11:23;101693.81;;;2.19;100.00
39265;BME280;42646;51.910;7.724;2024-03-17T05:13:50;101696.44;;;2.19;100.00
39265;BME280;42646;51.910;7.724;2024-03-17T05:16:18;101694.63;;;2.21;100.00
39265;BME280;42646;51.910;7.724;2024-03-17T05:18:48;101699.88;;;2.21;100.00
39265;BME280;42646;51.910;7.724;2024-03-17T05:21:15;101695.56;;;2.20;100.00
39265;BME280;42646;51.910;7.724;2024-03-17T05:23:42;101693.81;;;2.19;100.00
39265;BME280;42646;51.910;7.724;2024-03-17T05:26:09;101696.44;;;2.19;100.00
39265;BME280;42646;51.910;7.724;2024-03-17T05:28:35;101682.53;;;2.17;100.00
39265;BME280;42646;51.910;7.724;2024-03-17T05:31:02;101677.28;;;2.17;100.00
39265;BME280;42646;51.910;7.724;2024-03-17T05:33:31;101673.81;;;2.17;100.00
39265;BME280;42646;51.910;7.724;2024-03-17T05:35:59;101676.50;;;2.15;100.00
39265;BME280;42646;51.910;7.724;2024-03-17T05:38:28;101667.75;;;2.14;100.00
39265;BME280;42646;51.910;7.724;2024-03-17T05:40:56;101679.19;;;2.13;100.00
39265;BME280;42646;51.910;7.724;2024-03-17T05:43:24;101672.19;;;2.12;100.00
39265;BME280;42646;51.910;7.724;2024-03-17T05:45:51;101679.22;;;2.12;100.00
39265;BME280;42646;51.910;7.724;2024-03-17T05:48:18;101682.84;;;2.09;100.00
39265;BME280;42646;51.910;7.724;2024-03-17T05:50:46;101685.53;;;2.08;100.00
39265;BME280;42646;51.910;7.724;2024-03-17T05:53:13;101680.38;;;2.05;100.00
39265;BME280;42646;51.910;7.724;2024-03-17T05:55:40;101679.53;;;2.04;100.00
39265;BME280;42646;51.910;7.724;2024-03-17T05:58:08;101690.09;;;2.03;100.00
39265;BME280;42646;51.910;7.724;2024-03-17T06:00:35;101683.06;;;2.03;100.00
39265;BME280;42646;51.910;7.724;2024-03-17T06:03:02;101683.06;;;2.03;100.00
39265;BME280;42646;51.910;7.724;2024-03-17T06:05:31;101682.16;;;2.04;100.00
39265;BME280;42646;51.910;7.724;2024-03-17T06:08:00;101683.91;;;2.04;100.00
39265;BME280;42646;51.910;7.724;2024-03-17T06:10:28;101669.94;;;2.03;100.00
39265;BME280;42646;51.910;7.724;2024-03-17T06:12:55;101676.84;;;2.06;100.00
39265;BME280;42646;51.910;7.724;2024-03-17T06:15:22;101668.97;;;2.06;100.00
39265;BME280;42646;51.910;7.724;2024-03-17T06:17:50;101672.44;;;2.06;100.00
39265;BME280;42646;51.910;7.724;2024-03-17T06:20:17;101671.59;;;2.06;100.00
39265;BME280;42646;51.910;7.724;2024-03-17T06:22:44;101673.28;;;2.07;100.00
39265;BME280;42646;51.910;7.724;2024-03-17T06:25:13;101669.78;;;2.08;100.00
39265;BME280;42646;51.910;7.724;2024-03-17T06:27:40;101680.28;;;2.08;100.00
39265;BME280;42646;51.910;7.724;2024-03-17T06:30:11;101684.59;;;2.09;100.00
39265;BME280;42646;51.910;7.724;2024-03-17T06:32:40;101675.75;;;2.11;100.00
39265;BME280;42646;51.910;7.724;2024-03-17T06:35:07;101686.84;;;2.18;100.00
39265;BME280;42646;51.910;7.724;2024-03-17T06:37:34;101676.88;;;2.28;100.00
39265;BME280;42646;51.910;7.724;2024-03-17T06:40:01;101673.00;;;2.36;100.00
39265;BME280;42646;51.910;7.724;2024-03-17T06:42:30;101676.03;;;2.49;100.00
39265;BME280;42646;51.910;7.724;2024-03-17T06:44:56;101679.00;;;2.62;100.00
39265;BME280;42646;51.910;7.724;2024-03-17T06:47:23;101679.22;;;2.78;100.00
39265;BME280;42646;51.910;7.724;2024-03-17T06:49:51;101670.63;;;2.94;100.00
39265;BME280;42646;51.910;7.724;2024-03-17T06:52:17;101672.63;;;3.10;100.00
39265;BME280;42646;51.910;7.724;2024-03-17T06:54:46;101671.81;;;3.28;100.00
39265;BME280;42646;51.910;7.724;2024-03-17T06:57:15;101679.09;;;3.42;100.00
39265;BME280;42646;51.910;7.724;2024-03-17T06:59:43;101675.94;;;3.54;100.00
39265;BME280;42646;51.910;7.724;2024-03-17T07:02:11;101675.38;;;3.66;100.00
39265;BME280;42646;51.910;7.724;2024-03-17T07:04:39;101674.81;;;3.79;100.00
39265;BME280;42646;51.910;7.724;2024-03-17T07:07:05;101670.78;;;3.90;100.00
39265;BME280;42646;51.910;7.724;2024-03-17T07:09:32;101678.97;;;4.03;100.00
39265;BME280;42646;51.910;7.724;2024-03-17T07:11:59;101670.56;;;4.14;100.00
39265;BME280;42646;51.910;7.724;2024-03-17T07:14:25;101674.47;;;4.24;100.00
39265;BME280;42646;51.910;7.724;2024-03-17T07:16:53;101668.50;;;4.39;100.00
39265;BME280;42646;51.910;7.724;2024-03-17T07:19:20;101668.53;;;4.57;100.00
39265;BME280;42646;51.910;7.724;2024-03-17T07:21:47;101661.34;;;4.77;100.00
39265;BME280;42646;51.910;7.724;2024-03-17T07:24:13;101651.72;;;4.94;100.00
39265;BME280;42646;51.910;7.724;2024-03-17T07:26:40;101649.84;;;5.13;100.00
39265;BME280;42646;51.910;7.724;2024-03-17T07:29:07;101641.91;;;5.30;100.00
39265;BME280;42646;51.910;7.724;2024-03-17T07:31:34;101643.59;;;5.49;100.00
39265;BME280;42646;51.910;7.724;2024-03-17T07:34:02;101645.94;;;5.71;100.00
39265;BME280;42646;51.910;7.724;2024-03-17T07:36:29;101646.72;;;5.88;100.00
39265;BME280;42646;51.910;7.724;2024-03-17T07:38:56;101650.78;;;6.11;100.00
39265;BME280;42646;51.910;7.724;2024-03-17T07:41:23;101649.75;;;6.30;100.00
39265;BME280;42646;51.910;7.724;2024-03-17T07:43:50;101652.81;;;6.38;100.00
39265;BME280;42646;51.910;7.724;2024-03-17T07:46:17;101649.72;;;6.46;100.00
39265;BME280;42646;51.910;7.724;2024-03-17T07:48:44;101646.91;;;6.49;100.00
39265;BME280;42646;51.910;7.724;2024-03-17T07:51:13;101655.59;;;6.51;100.00
39265;BME280;42646;51.910;7.724;2024-03-17T07:53:43;101660.63;;;6.55;100.00
39265;BME280;42646;51.910;7.724;2024-03-17T07:56:11;101656.69;;;6.62;100.00
39265;BME280;42646;51.910;7.724;2024-03-17T07:58:41;101653.94;;;6.64;100.00
39265;BME280;42646;51.910;7.724;2024-03-17T08:01:09;101652.19;;;6.64;100.00
39265;BME280;42646;51.910;7.724;2024-03-17T08:03:38;101649.19;;;6.71;100.00
39265;BME280;42646;51.910;7.724;2024-03-17T08:06:06;101655.97;;;6.75;100.00
39265;BME280;42646;51.910;7.724;2024-03-17T08:08:34;101649.56;;;6.79;100.00
39265;BME280;42646;51.910;7.724;2024-03-17T08:11:02;101645.81;;;6.83;99.80
39265;BME280;42646;51.910;7.724;2024-03-17T08:13:30;101650.81;;;6.87;99.34
39265;BME280;42646;51.910;7.724;2024-03-17T08:16:00;101660.19;;;6.93;99.43
39265;BME280;42646;51.910;7.724;2024-03-17T08:18:27;101662.09;;;7.05;99.91
39265;BME280;42646;51.910;7.724;2024-03-17T08:20:54;101665.88;;;7.31;99.79
39265;BME280;42646;51.910;7.724;2024-03-17T08:23:21;101667.38;;;7.64;98.33
39265;BME280;42646;51.910;7.724;2024-03-17T08:25:53;101660.03;;;7.83;96.95
39265;BME280;42646;51.910;7.724;2024-03-17T08:28:20;101663.88;;;7.92;96.03
39265;BME280;42646;51.910;7.724;2024-03-17T08:30:51;101675.50;;;8.03;94.92
39265;BME280;42646;51.910;7.724;2024-03-17T08:33:18;101681.94;;;8.14;93.84
39265;BME280;42646;51.910;7.724;2024-03-17T08:35:52;101675.75;;;8.27;93.32
39265;BME280;42646;51.910;7.724;2024-03-17T08:38:19;101664.75;;;8.48;92.34
39265;BME280;42646;51.910;7.724;2024-03-17T08:40:46;101669.59;;;8.68;91.86
39265;BME280;42646;51.910;7.724;2024-03-17T08:43:14;101664.63;;;8.89;91.15
39265;BME280;42646;51.910;7.724;2024-03-17T08:45:41;101664.81;;;9.13;88.72
39265;BME280;42646;51.910;7.724;2024-03-17T08:48:08;101655.66;;;9.30;85.77
39265;BME280;42646;51.910;7.724;2024-03-17T08:50:36;101659.63;;;9.37;86.03
39265;BME280;42646;51.910;7.724;2024-03-17T08:53:03;101654.63;;;9.58;86.29
39265;BME280;42646;51.910;7.724;2024-03-17T08:55:30;101663.06;;;9.88;83.01
39265;BME280;42646;51.910;7.724;2024-03-17T08:57:56;101668.41;;;9.88;81.84
39265;BME280;42646;51.910;7.724;2024-03-17T09:00:24;101663.03;;;10.01;81.70
39265;BME280;42646;51.910;7.724;2024-03-17T09:02:52;101655.28;;;10.11;80.75
39265;BME280;42646;51.910;7.724;2024-03-17T09:05:18;101659.81;;;10.22;79.39
39265;BME280;42646;51.910;7.724;2024-03-17T09:07:45;101657.06;;;10.23;78.88
39265;BME280;42646;51.910;7.724;2024-03-17T09:10:12;101657.16;;;10.22;79.14
39265;BME280;42646;51.910;7.724;2024-03-17T09:12:39;101656.50;;;10.31;79.77
39265;BME280;42646;51.910;7.724;2024-03-17T09:15:06;101660.06;;;10.42;80.11
39265;BME280;42646;51.910;7.724;2024-03-17T09:17:35;101656.06;;;10.61;78.00
39265;BME280;42646;51.910;7.724;2024-03-17T09:20:02;101648.25;;;10.70;76.85
39265;BME280;42646;51.910;7.724;2024-03-17T09:22:28;101646.59;;;10.81;76.83
39265;BME280;42646;51.910;7.724;2024-03-17T09:24:55;101652.44;;;10.86;74.65
39265;BME280;42646;51.910;7.724;2024-03-17T09:27:22;101645.66;;;10.93;71.36
39265;BME280;42646;51.910;7.724;2024-03-17T09:29:51;101656.16;;;10.83;72.14
39265;BME280;42646;51.910;7.724;2024-03-17T09:32:18;101654.59;;;10.81;72.63
39265;BME280;42646;51.910;7.724;2024-03-17T09:34:47;101648.88;;;10.74;73.49
39265;BME280;42646;51.910;7.724;2024-03-17T09:37:14;101639.94;;;10.75;73.67
39265;BME280;42646;51.910;7.724;2024-03-17T09:39:41;101646.94;;;10.76;73.31
39265;BME280;42646;51.910;7.724;2024-03-17T09:42:17;101644.88;;;10.68;74.38
39265;BME280;42646;51.910;7.724;2024-03-17T09:44:45;101644.50;;;10.73;74.21
39265;BME280;42646;51.910;7.724;2024-03-17T09:47:18;101644.00;;;10.68;74.09
39265;BME280;42646;51.910;7.724;2024-03-17T09:49:45;101638.78;;;10.66;73.25
39265;BME280;42646;51.910;7.724;2024-03-17T09:52:19;101633.84;;;10.62;74.29
39265;BME280;42646;51.910;7.724;2024-03-17T09:54:46;101625.22;;;10.58;74.75
39265;BME280;42646;51.910;7.724;2024-03-17T09:57:16;101616.78;;;10.64;75.08
39265;BME280;42646;51.910;7.724;2024-03-17T09:59:50;101598.16;;;10.64;74.81
39265;BME280;42646;51.910;7.724;2024-03-17T10:02:17;101596.72;;;10.72;74.18
39265;BME280;42646;51.910;7.724;2024-03-17T10:04:44;101587.50;;;10.64;74.28
39265;BME280;42646;51.910;7.724;2024-03-17T10:07:12;101598.88;;;10.66;75.10
39265;BME280;42646;51.910;7.724;2024-03-17T10:09:41;101591.69;;;10.80;74.47
39265;BME280;42646;51.910;7.724;2024-03-17T10:12:29;101595.69;;;10.85;74.02
39265;BME280;42646;51.910;7.724;2024-03-17T10:14:59;101601.72;;;10.87;74.34
39265;BME280;42646;51.910;7.724;2024-03-17T10:17:30;101609.75;;;10.99;74.27
39265;BME280;42646;51.910;7.724;2024-03-17T10:20:14;101612.66;;;11.07;74.29
39265;BME280;42646;51.910;7.724;2024-03-17T10:22:59;101607.34;;;11.18;73.82
39265;BME280;42646;51.910;7.724;2024-03-17T10:25:27;101619.13;;;11.27;73.02
39265;BME280;42646;51.910;7.724;2024-03-17T10:27:54;101622.00;;;11.23;72.79
39265;BME280;42646;51.910;7.724;2024-03-17T10:30:22;101628.06;;;11.26;73.20
39265;BME280;42646;51.910;7.724;2024-03-17T10:32:53;101622.38;;;11.30;73.01
39265;BME280;42646;51.910;7.724;2024-03-17T10:35:31;101619.25;;;11.36;72.49
39265;BME280;42646;51.910;7.724;2024-03-17T10:38:01;101621.78;;;11.38;72.11
39265;BME280;42646;51.910;7.724;2024-03-17T10:40:29;101617.69;;;11.45;71.43
39265;BME280;42646;51.910;7.724;2024-03-17T10:42:57;101612.09;;;11.48;70.89
39265;BME280;42646;51.910;7.724;2024-03-17T10:45:25;101618.06;;;11.52;70.28
39265;BME280;42646;51.910;7.724;2024-03-17T10:47:52;101613.94;;;11.59;70.23
39265;BME280;42646;51.910;7.724;2024-03-17T10:50:20;101618.16;;;11.72;68.56
39265;BME280;42646;51.910;7.724;2024-03-17T10:52:48;101607.38;;;11.74;67.42
39265;BME280;42646;51.910;7.724;2024-03-17T10:55:22;101618.16;;;11.72;68.10
39265;BME280;42646;51.910;7.724;2024-03-17T10:57:50;101611.13;;;11.71;69.04
39265;BME280;42646;51.910;7.724;2024-03-17T11:00:18;101618.06;;;11.74;67.70
39265;BME280;42646;51.910;7.724;2024-03-17T11:02:48;101618.63;;;11.77;66.75
39265;BME280;42646;51.910;7.724;2024-03-17T11:05:21;101615.97;;;11.77;65.56
39265;BME280;42646;51.910;7.724;2024-03-17T11:07:50;101613.31;;;11.77;65.84
39265;BME280;42646;51.910;7.724;2024-03-17T11:10:21;101615.66;;;11.82;65.65
39265;BME280;42646;51.910;7.724;2024-03-17T11:12:50;101607.28;;;11.87;65.73
39265;BME280;42646;51.910;7.724;2024-03-17T11:15:39;101610.78;;;11.87;66.15
39265;BME280;42646;51.910;7.724;2024-03-17T11:18:29;101613.47;;;11.87;66.52
39265;BME280;42646;51.910;7.724;2024-03-17T11:20:58;101611.63;;;11.88;66.71
39265;BME280;42646;51.910;7.724;2024-03-17T11:23:29;101612.34;;;11.90;66.05
39265;BME280;42646;51.910;7.724;2024-03-17T11:25:57;101605.19;;;11.90;65.17
39265;BME280;42646;51.910;7.724;2024-03-17T11:28:48;101607.38;;;11.96;64.49
39265;BME280;42646;51.910;7.724;2024-03-17T11:31:37;101610.78;;;11.98;63.29
39265;BME280;42646;51.910;7.724;2024-03-17T11:34:08;101610.53;;;12.01;63.76
39265;BME280;42646;51.910;7.724;2024-03-17T11:36:52;101611.84;;;12.07;63.67
39265;BME280;42646;51.910;7.724;2024-03-17T11:39:19;101606.28;;;12.10;63.45
39265;BME280;42646;51.910;7.724;2024-03-17T11:41:48;101597.44;;;12.10;63.67
39265;BME280;42646;51.910;7.724;2024-03-17T11:44:23;101601.75;;;12.22;62.36
39265;BME280;42646;51.910;7.724;2024-03-17T11:46:51;101590.47;;;12.18;62.87
39265;BME280;42646;51.910;7.724;2024-03-17T11:49:20;101600.41;;;12.27;62.16
39265;BME280;42646;51.910;7.724;2024-03-17T11:51:47;101595.28;;;12.36;59.09
39265;BME280;42646;51.910;7.724;2024-03-17T11:54:15;101601.50;;;12.25;59.45
39265;BME280;42646;51.910;7.724;2024-03-17T11:56:47;101593.34;;;12.26;60.75
39265;BME280;42646;51.910;7.724;2024-03-17T11:59:14;101590.44;;;12.29;60.39
39265;BME280;42646;51.910;7.724;2024-03-17T12:01:43;101587.97;;;12.38;59.69
39265;BME280;42646;51.910;7.724;2024-03-17T12:04:11;101596.59;;;12.41;58.98
39265;BME280;42646;51.910;7.724;2024-03-17T12:06:38;101585.69;;;12.33;59.48
39265;BME280;42646;51.910;7.724;2024-03-17T12:09:10;101585.69;;;12.33;60.20
39265;BME280;42646;51.910;7.724;2024-03-17T12:11:36;101589.34;;;12.32;60.36
39265;BME280;42646;51.910;7.724;2024-03-17T12:14:15;101588.81;;;12.38;59.78
39265;BME280;42646;51.910;7.724;2024-03-17T12:16:51;101594.16;;;12.38;59.67
39265;BME280;42646;51.910;7.724;2024-03-17T12:19:18;101594.06;;;12.40;59.49
39265;BME280;42646;51.910;7.724;2024-03-17T12:21:45;101591.38;;;12.40;59.60
39265;BME280;42646;51.910;7.724;2024-03-17T12:24:17;101575.47;;;12.38;59.69
39265;BME280;42646;51.910;7.724;2024-03-17T12:26:44;101571.72;;;12.41;59.58
39265;BME280;42646;51.910;7.724;2024-03-17T12:29:26;101569.91;;;12.41;60.18
39265;BME280;42646;51.910;7.724;2024-03-17T12:31:53;101568.69;;;12.45;59.97
39265;BME280;42646;51.910;7.724;2024-03-17T12:34:21;101553.75;;;12.43;59.78
39265;BME280;42646;51.910;7.724;2024-03-17T12:36:48;101551.69;;;12.46;60.09
39265;BME280;42646;51.910;7.724;2024-03-17T12:39:19;101547.66;;;12.52;60.55
39265;BME280;42646;51.910;7.724;2024-03-17T12:42:01;101544.47;;;12.58;59.69
39265;BME280;42646;51.910;7.724;2024-03-17T12:44:30;101540.34;;;12.54;59.33
39265;BME280;42646;51.910;7.724;2024-03-17T12:46:56;101540.59;;;12.51;59.47
39265;BME280;42646;51.910;7.724;2024-03-17T12:49:26;101541.06;;;12.56;59.91
39265;BME280;42646;51.910;7.724;2024-03-17T12:51:52;101533.38;;;12.63;59.63
39265;BME280;42646;51.910;7.724;2024-03-17T12:54:21;101532.81;;;12.59;59.94
39265;BME280;42646;51.910;7.724;2024-03-17T12:56:49;101530.00;;;12.61;59.67